sensor_id;sensor_type;location;lat;lon;timestamp;P1;durP1;ratioP1;P2;durP2;ratioP2
4533;SDS011;2279;51.448;7.306;2024-03-02T00:00:42;227.77;;;66.90;;
4533;SDS011;2279;51.448;7.306;2024-03-02T00:03:08;228.47;;;69.73;;
4533;SDS011;2279;51.448;7.306;2024-03-02T00:05:34;229.00;;;69.85;;
4533;SDS011;2279;51.448;7.306;2024-03-02T00:08:01;229.13;;;70.55;;
4533;SDS011;2279;51.448;7.306;2024-03-02T00:10:29;228.35;;;67.07;;
4533;SDS011;2279;51.448;7.306;2024-03-02T00:13:00;226.32;;;65.35;;
4533;SDS011;2279;51.448;7.306;2024-03-02T00:18:12;224.90;;;64.25;;
4533;SDS011;2279;51.448;7.306;2024-03-02T00:20:40;228.52;;;67.43;;
4533;SDS011;2279;51.448;7.306;2024-03-02T00:23:07;226.82;;;66.07;;
4533;SDS011;2279;51.448;7.306;2024-03-02T00:28:01;225.98;;;66.15;;
4533;SDS011;2279;51.448;7.306;2024-03-02T00:30:51;228.27;;;67.80;;
4533;SDS011;2279;51.448;7.306;2024-03-02T00:33:20;224.65;;;64.90;;
4533;SDS011;2279;51.448;7.306;2024-03-02T00:35:46;226.75;;;66.10;;
4533;SDS011;2279;51.448;7.306;2024-03-02T00:38:12;227.63;;;68.18;;
4533;SDS011;2279;51.448;7.306;2024-03-02T00:40:42;226.40;;;65.30;;
4533;SDS011;2279;51.448;7.306;2024-03-02T00:45:44;228.65;;;70.47;;
4533;SDS011;2279;51.448;7.306;2024-03-02T00:48:10;226.80;;;66.47;;
4533;SDS011;2279;51.448;7.306;2024-03-02T00:50:36;227.75;;;67.72;;
4533;SDS011;2279;51.448;7.306;2024-03-02T00:53:02;225.23;;;66.80;;
4533;SDS011;2279;51.448;7.306;2024-03-02T00:55:28;227.82;;;66.95;;
4533;SDS011;2279;51.448;7.306;2024-03-02T00:57:54;226.53;;;67.47;;
4533;SDS011;2279;51.448;7.306;2024-03-02T01:00:20;228.33;;;70.90;;
4533;SDS011;2279;51.448;7.306;2024-03-02T01:02:46;226.88;;;67.05;;
4533;SDS011;2279;51.448;7.306;2024-03-02T01:05:12;227.48;;;68.10;;
4533;SDS011;2279;51.448;7.306;2024-03-02T01:07:38;226.95;;;67.70;;
4533;SDS011;2279;51.448;7.306;2024-03-02T01:10:06;226.80;;;65.93;;
4533;SDS011;2279;51.448;7.306;2024-03-02T01:12:32;225.00;;;65.60;;
4533;SDS011;2279;51.448;7.306;2024-03-02T01:14:58;227.67;;;67.10;;
4533;SDS011;2279;51.448;7.306;2024-03-02T01:17:24;228.33;;;69.90;;
4533;SDS011;2279;51.448;7.306;2024-03-02T01:19:50;226.23;;;66.70;;
4533;SDS011;2279;51.448;7.306;2024-03-02T01:22:16;227.30;;;69.40;;
4533;SDS011;2279;51.448;7.306;2024-03-02T01:24:44;232.98;;;73.85;;
4533;SDS011;2279;51.448;7.306;2024-03-02T01:27:10;228.47;;;69.50;;
4533;SDS011;2279;51.448;7.306;2024-03-02T01:29:36;226.87;;;67.97;;
4533;SDS011;2279;51.448;7.306;2024-03-02T01:32:02;225.73;;;67.47;;
4533;SDS011;2279;51.448;7.306;2024-03-02T01:34:28;225.38;;;65.30;;
4533;SDS011;2279;51.448;7.306;2024-03-02T01:36:54;228.67;;;68.90;;
4533;SDS011;2279;51.448;7.306;2024-03-02T01:39:20;229.93;;;69.43;;
4533;SDS011;2279;51.448;7.306;2024-03-02T01:41:46;226.17;;;66.87;;
4533;SDS011;2279;51.448;7.306;2024-03-02T01:44:12;228.80;;;70.53;;
4533;SDS011;2279;51.448;7.306;2024-03-02T01:46:38;228.40;;;67.00;;
4533;SDS011;2279;51.448;7.306;2024-03-02T01:49:04;229.57;;;68.82;;
4533;SDS011;2279;51.448;7.306;2024-03-02T01:51:31;231.68;;;73.35;;
4533;SDS011;2279;51.448;7.306;2024-03-02T01:53:57;229.82;;;69.68;;
4533;SDS011;2279;51.448;7.306;2024-03-02T01:56:23;228.67;;;71.13;;
4533;SDS011;2279;51.448;7.306;2024-03-02T01:58:49;228.73;;;68.33;;
4533;SDS011;2279;51.448;7.306;2024-03-02T02:01:15;230.55;;;72.32;;
4533;SDS011;2279;51.448;7.306;2024-03-02T02:03:41;227.10;;;67.90;;
4533;SDS011;2279;51.448;7.306;2024-03-02T02:06:07;227.03;;;69.00;;
4533;SDS011;2279;51.448;7.306;2024-03-02T02:08:33;226.55;;;67.28;;
4533;SDS011;2279;51.448;7.306;2024-03-02T02:10:59;228.10;;;69.77;;
4533;SDS011;2279;51.448;7.306;2024-03-02T02:13:25;226.67;;;69.60;;
4533;SDS011;2279;51.448;7.306;2024-03-02T02:15:51;230.67;;;72.00;;
4533;SDS011;2279;51.448;7.306;2024-03-02T02:18:19;228.70;;;70.53;;
4533;SDS011;2279;51.448;7.306;2024-03-02T02:20:45;228.40;;;70.10;;
4533;SDS011;2279;51.448;7.306;2024-03-02T02:23:11;228.77;;;69.03;;
4533;SDS011;2279;51.448;7.306;2024-03-02T02:25:38;226.13;;;66.10;;
4533;SDS011;2279;51.448;7.306;2024-03-02T02:28:04;225.93;;;67.17;;
4533;SDS011;2279;51.448;7.306;2024-03-02T02:30:31;227.55;;;68.28;;
4533;SDS011;2279;51.448;7.306;2024-03-02T02:32:57;227.88;;;68.72;;
4533;SDS011;2279;51.448;7.306;2024-03-02T02:35:23;228.95;;;69.45;;
4533;SDS011;2279;51.448;7.306;2024-03-02T02:37:49;225.60;;;68.60;;
4533;SDS011;2279;51.448;7.306;2024-03-02T02:40:16;228.57;;;69.30;;
4533;SDS011;2279;51.448;7.306;2024-03-02T02:42:43;227.32;;;68.55;;
4533;SDS011;2279;51.448;7.306;2024-03-02T02:45:10;229.95;;;71.28;;
4533;SDS011;2279;51.448;7.306;2024-03-02T02:47:38;227.20;;;68.30;;
4533;SDS011;2279;51.448;7.306;2024-03-02T02:50:04;227.73;;;69.47;;
4533;SDS011;2279;51.448;7.306;2024-03-02T02:52:31;235.60;;;75.63;;
4533;SDS011;2279;51.448;7.306;2024-03-02T02:54:58;231.23;;;71.82;;
4533;SDS011;2279;51.448;7.306;2024-03-02T02:57:25;231.15;;;72.25;;
4533;SDS011;2279;51.448;7.306;2024-03-02T02:59:51;228.27;;;70.57;;
4533;SDS011;2279;51.448;7.306;2024-03-02T03:02:17;227.47;;;67.83;;
4533;SDS011;2279;51.448;7.306;2024-03-02T03:04:43;232.77;;;74.87;;
4533;SDS011;2279;51.448;7.306;2024-03-02T03:10:12;230.18;;;71.22;;
4533;SDS011;2279;51.448;7.306;2024-03-02T03:12:38;229.30;;;69.85;;
4533;SDS011;2279;51.448;7.306;2024-03-02T03:15:06;229.85;;;71.07;;
4533;SDS011;2279;51.448;7.306;2024-03-02T03:17:33;231.40;;;71.93;;
4533;SDS011;2279;51.448;7.306;2024-03-02T03:19:59;228.50;;;68.50;;
4533;SDS011;2279;51.448;7.306;2024-03-02T03:22:26;229.90;;;68.85;;
4533;SDS011;2279;51.448;7.306;2024-03-02T03:24:52;230.20;;;69.95;;
4533;SDS011;2279;51.448;7.306;2024-03-02T03:27:18;231.50;;;72.68;;
4533;SDS011;2279;51.448;7.306;2024-03-02T03:29:47;229.63;;;68.85;;
4533;SDS011;2279;51.448;7.306;2024-03-02T03:32:13;228.55;;;70.10;;
4533;SDS011;2279;51.448;7.306;2024-03-02T03:34:39;229.23;;;68.75;;
4533;SDS011;2279;51.448;7.306;2024-03-02T03:37:05;230.90;;;70.95;;
4533;SDS011;2279;51.448;7.306;2024-03-02T03:39:31;226.70;;;67.57;;
4533;SDS011;2279;51.448;7.306;2024-03-02T03:41:57;230.73;;;70.75;;
4533;SDS011;2279;51.448;7.306;2024-03-02T03:44:23;229.27;;;68.37;;
4533;SDS011;2279;51.448;7.306;2024-03-02T03:46:49;228.45;;;71.38;;
4533;SDS011;2279;51.448;7.306;2024-03-02T03:49:15;226.13;;;68.27;;
4533;SDS011;2279;51.448;7.306;2024-03-02T03:51:41;231.53;;;71.87;;
4533;SDS011;2279;51.448;7.306;2024-03-02T03:54:07;228.18;;;70.18;;
4533;SDS011;2279;51.448;7.306;2024-03-02T03:56:33;232.97;;;74.77;;
4533;SDS011;2279;51.448;7.306;2024-03-02T03:58:59;230.40;;;72.53;;
4533;SDS011;2279;51.448;7.306;2024-03-02T04:01:25;229.97;;;72.80;;
4533;SDS011;2279;51.448;7.306;2024-03-02T04:03:51;231.00;;;73.13;;
4533;SDS011;2279;51.448;7.306;2024-03-02T04:06:17;229.53;;;70.57;;
4533;SDS011;2279;51.448;7.306;2024-03-02T04:08:43;229.80;;;72.07;;
4533;SDS011;2279;51.448;7.306;2024-03-02T04:11:09;225.23;;;66.67;;
4533;SDS011;2279;51.448;7.306;2024-03-02T04:13:35;228.83;;;70.37;;
4533;SDS011;2279;51.448;7.306;2024-03-02T04:16:01;230.00;;;73.63;;
4533;SDS011;2279;51.448;7.306;2024-03-02T04:18:28;228.43;;;71.32;;
4533;SDS011;2279;51.448;7.306;2024-03-02T04:20:54;226.80;;;68.63;;
4533;SDS011;2279;51.448;7.306;2024-03-02T04:23:20;226.97;;;67.70;;
4533;SDS011;2279;51.448;7.306;2024-03-02T04:25:46;228.97;;;72.27;;
4533;SDS011;2279;51.448;7.306;2024-03-02T04:28:12;227.27;;;68.57;;
4533;SDS011;2279;51.448;7.306;2024-03-02T04:30:38;228.10;;;68.33;;
4533;SDS011;2279;51.448;7.306;2024-03-02T04:33:04;229.47;;;72.63;;
4533;SDS011;2279;51.448;7.306;2024-03-02T04:35:32;230.13;;;70.78;;
4533;SDS011;2279;51.448;7.306;2024-03-02T04:37:58;230.97;;;73.07;;
4533;SDS011;2279;51.448;7.306;2024-03-02T04:40:24;231.73;;;72.25;;
4533;SDS011;2279;51.448;7.306;2024-03-02T04:42:50;229.03;;;70.33;;
4533;SDS011;2279;51.448;7.306;2024-03-02T04:45:16;229.38;;;69.95;;
4533;SDS011;2279;51.448;7.306;2024-03-02T04:47:42;231.67;;;72.23;;
4533;SDS011;2279;51.448;7.306;2024-03-02T04:50:08;227.27;;;71.00;;
4533;SDS011;2279;51.448;7.306;2024-03-02T04:52:35;229.85;;;71.32;;
4533;SDS011;2279;51.448;7.306;2024-03-02T04:55:01;231.20;;;75.17;;
4533;SDS011;2279;51.448;7.306;2024-03-02T04:57:46;227.27;;;71.53;;
4533;SDS011;2279;51.448;7.306;2024-03-02T05:00:12;229.93;;;73.97;;
4533;SDS011;2279;51.448;7.306;2024-03-02T05:02:38;229.48;;;70.22;;
4533;SDS011;2279;51.448;7.306;2024-03-02T05:05:04;229.50;;;72.10;;
4533;SDS011;2279;51.448;7.306;2024-03-02T05:07:31;229.57;;;70.55;;
4533;SDS011;2279;51.448;7.306;2024-03-02T05:09:56;229.60;;;70.27;;
4533;SDS011;2279;51.448;7.306;2024-03-02T05:12:22;226.63;;;68.60;;
4533;SDS011;2279;51.448;7.306;2024-03-02T05:15:07;238.48;;;78.55;;
4533;SDS011;2279;51.448;7.306;2024-03-02T05:17:33;226.30;;;67.53;;
4533;SDS011;2279;51.448;7.306;2024-03-02T05:19:59;228.03;;;69.73;;
4533;SDS011;2279;51.448;7.306;2024-03-02T05:22:25;226.93;;;67.50;;
4533;SDS011;2279;51.448;7.306;2024-03-02T05:24:51;227.60;;;68.40;;
4533;SDS011;2279;51.448;7.306;2024-03-02T05:27:17;226.38;;;67.00;;
4533;SDS011;2279;51.448;7.306;2024-03-02T05:29:43;229.20;;;69.67;;
4533;SDS011;2279;51.448;7.306;2024-03-02T05:32:09;222.73;;;63.90;;
4533;SDS011;2279;51.448;7.306;2024-03-02T05:34:35;226.73;;;68.72;;
4533;SDS011;2279;51.448;7.306;2024-03-02T05:37:01;228.37;;;70.67;;
4533;SDS011;2279;51.448;7.306;2024-03-02T05:39:27;227.73;;;69.47;;
4533;SDS011;2279;51.448;7.306;2024-03-02T05:41:53;228.77;;;70.40;;
4533;SDS011;2279;51.448;7.306;2024-03-02T05:44:19;224.33;;;66.63;;
4533;SDS011;2279;51.448;7.306;2024-03-02T05:46:45;229.23;;;72.57;;
4533;SDS011;2279;51.448;7.306;2024-03-02T05:49:11;229.90;;;71.43;;
4533;SDS011;2279;51.448;7.306;2024-03-02T05:51:37;226.07;;;67.17;;
4533;SDS011;2279;51.448;7.306;2024-03-02T05:54:03;228.37;;;69.90;;
4533;SDS011;2279;51.448;7.306;2024-03-02T05:56:29;229.30;;;71.87;;
4533;SDS011;2279;51.448;7.306;2024-03-02T05:58:55;225.73;;;66.63;;
4533;SDS011;2279;51.448;7.306;2024-03-02T06:01:40;225.00;;;67.15;;
4533;SDS011;2279;51.448;7.306;2024-03-02T06:04:06;227.25;;;70.65;;
4533;SDS011;2279;51.448;7.306;2024-03-02T06:06:32;227.67;;;70.57;;
4533;SDS011;2279;51.448;7.306;2024-03-02T06:09:01;227.65;;;69.50;;
4533;SDS011;2279;51.448;7.306;2024-03-02T06:11:30;228.00;;;70.53;;
4533;SDS011;2279;51.448;7.306;2024-03-02T06:13:56;227.73;;;69.73;;
4533;SDS011;2279;51.448;7.306;2024-03-02T06:16:22;224.93;;;67.70;;
4533;SDS011;2279;51.448;7.306;2024-03-02T06:18:48;231.30;;;73.47;;
4533;SDS011;2279;51.448;7.306;2024-03-02T06:21:14;226.60;;;68.00;;
4533;SDS011;2279;51.448;7.306;2024-03-02T06:23:40;227.27;;;70.13;;
4533;SDS011;2279;51.448;7.306;2024-03-02T06:26:06;226.50;;;67.37;;
4533;SDS011;2279;51.448;7.306;2024-03-02T06:28:32;222.73;;;63.17;;
4533;SDS011;2279;51.448;7.306;2024-03-02T06:30:58;229.57;;;72.50;;
4533;SDS011;2279;51.448;7.306;2024-03-02T06:33:24;224.47;;;67.47;;
4533;SDS011;2279;51.448;7.306;2024-03-02T06:35:50;227.73;;;69.40;;
4533;SDS011;2279;51.448;7.306;2024-03-02T06:38:16;224.95;;;66.90;;
4533;SDS011;2279;51.448;7.306;2024-03-02T06:40:42;230.17;;;72.53;;
4533;SDS011;2279;51.448;7.306;2024-03-02T06:43:08;224.33;;;66.17;;
4533;SDS011;2279;51.448;7.306;2024-03-02T06:45:34;227.50;;;69.05;;
4533;SDS011;2279;51.448;7.306;2024-03-02T06:48:00;226.77;;;68.22;;
4533;SDS011;2279;51.448;7.306;2024-03-02T06:50:26;225.93;;;68.45;;
4533;SDS011;2279;51.448;7.306;2024-03-02T06:52:52;228.13;;;70.67;;
4533;SDS011;2279;51.448;7.306;2024-03-02T06:55:18;230.27;;;73.65;;
4533;SDS011;2279;51.448;7.306;2024-03-02T06:57:44;232.07;;;76.53;;
4533;SDS011;2279;51.448;7.306;2024-03-02T07:00:10;230.73;;;72.20;;
4533;SDS011;2279;51.448;7.306;2024-03-02T07:02:37;229.65;;;69.78;;
4533;SDS011;2279;51.448;7.306;2024-03-02T07:05:05;231.23;;;71.63;;
4533;SDS011;2279;51.448;7.306;2024-03-02T07:07:32;232.95;;;75.75;;
4533;SDS011;2279;51.448;7.306;2024-03-02T07:09:59;229.68;;;68.70;;
4533;SDS011;2279;51.448;7.306;2024-03-02T07:12:25;226.30;;;65.80;;
4533;SDS011;2279;51.448;7.306;2024-03-02T07:14:51;235.45;;;76.53;;
4533;SDS011;2279;51.448;7.306;2024-03-02T07:17:36;230.32;;;71.85;;
4533;SDS011;2279;51.448;7.306;2024-03-02T07:20:02;232.50;;;72.95;;
4533;SDS011;2279;51.448;7.306;2024-03-02T07:22:29;232.75;;;71.82;;
4533;SDS011;2279;51.448;7.306;2024-03-02T07:24:55;237.82;;;76.32;;
4533;SDS011;2279;51.448;7.306;2024-03-02T07:27:20;232.10;;;71.70;;
4533;SDS011;2279;51.448;7.306;2024-03-02T07:29:46;234.07;;;72.13;;
4533;SDS011;2279;51.448;7.306;2024-03-02T07:32:13;237.27;;;75.95;;
4533;SDS011;2279;51.448;7.306;2024-03-02T07:34:39;235.17;;;72.10;;
4533;SDS011;2279;51.448;7.306;2024-03-02T07:37:04;232.33;;;70.63;;
4533;SDS011;2279;51.448;7.306;2024-03-02T07:39:30;233.37;;;69.43;;
4533;SDS011;2279;51.448;7.306;2024-03-02T07:41:56;239.00;;;72.68;;
4533;SDS011;2279;51.448;7.306;2024-03-02T07:44:23;239.60;;;72.05;;
4533;SDS011;2279;51.448;7.306;2024-03-02T07:46:49;239.95;;;75.53;;
4533;SDS011;2279;51.448;7.306;2024-03-02T07:49:15;233.98;;;69.72;;
4533;SDS011;2279;51.448;7.306;2024-03-02T07:51:41;236.82;;;72.40;;
4533;SDS011;2279;51.448;7.306;2024-03-02T07:54:07;237.07;;;71.97;;
4533;SDS011;2279;51.448;7.306;2024-03-02T07:56:34;239.63;;;71.15;;
4533;SDS011;2279;51.448;7.306;2024-03-02T07:59:00;236.57;;;71.00;;
4533;SDS011;2279;51.448;7.306;2024-03-02T08:01:30;239.85;;;73.75;;
4533;SDS011;2279;51.448;7.306;2024-03-02T08:04:02;240.90;;;77.50;;
4533;SDS011;2279;51.448;7.306;2024-03-02T08:06:29;237.70;;;75.65;;
4533;SDS011;2279;51.448;7.306;2024-03-02T08:08:55;240.45;;;76.47;;
4533;SDS011;2279;51.448;7.306;2024-03-02T08:11:21;234.27;;;69.95;;
4533;SDS011;2279;51.448;7.306;2024-03-02T08:13:48;239.27;;;73.93;;
4533;SDS011;2279;51.448;7.306;2024-03-02T08:16:16;239.68;;;77.25;;
4533;SDS011;2279;51.448;7.306;2024-03-02T08:18:49;235.80;;;71.22;;
4533;SDS011;2279;51.448;7.306;2024-03-02T08:21:15;234.43;;;69.65;;
4533;SDS011;2279;51.448;7.306;2024-03-02T08:23:42;241.20;;;77.10;;
4533;SDS011;2279;51.448;7.306;2024-03-02T08:26:08;238.02;;;71.70;;
4533;SDS011;2279;51.448;7.306;2024-03-02T08:28:34;244.57;;;77.47;;
4533;SDS011;2279;51.448;7.306;2024-03-02T08:31:02;239.93;;;73.03;;
4533;SDS011;2279;51.448;7.306;2024-03-02T08:33:28;241.57;;;75.60;;
4533;SDS011;2279;51.448;7.306;2024-03-02T08:35:53;238.00;;;72.53;;
4533;SDS011;2279;51.448;7.306;2024-03-02T08:38:19;238.97;;;72.90;;
4533;SDS011;2279;51.448;7.306;2024-03-02T08:40:46;237.18;;;71.60;;
4533;SDS011;2279;51.448;7.306;2024-03-02T08:43:12;241.33;;;76.57;;
4533;SDS011;2279;51.448;7.306;2024-03-02T08:45:38;242.63;;;79.10;;
4533;SDS011;2279;51.448;7.306;2024-03-02T08:48:05;238.82;;;72.15;;
4533;SDS011;2279;51.448;7.306;2024-03-02T08:50:31;238.45;;;73.22;;
4533;SDS011;2279;51.448;7.306;2024-03-02T08:52:57;241.50;;;75.93;;
4533;SDS011;2279;51.448;7.306;2024-03-02T08:55:23;243.07;;;79.13;;
4533;SDS011;2279;51.448;7.306;2024-03-02T08:57:48;242.77;;;76.47;;
4533;SDS011;2279;51.448;7.306;2024-03-02T09:00:15;243.00;;;75.35;;
4533;SDS011;2279;51.448;7.306;2024-03-02T09:02:43;242.68;;;76.70;;
4533;SDS011;2279;51.448;7.306;2024-03-02T09:05:09;242.63;;;78.15;;
4533;SDS011;2279;51.448;7.306;2024-03-02T09:07:35;242.70;;;79.50;;
4533;SDS011;2279;51.448;7.306;2024-03-02T09:10:03;236.95;;;73.93;;
4533;SDS011;2279;51.448;7.306;2024-03-02T09:12:29;239.13;;;76.38;;
4533;SDS011;2279;51.448;7.306;2024-03-02T09:14:55;246.65;;;81.20;;
4533;SDS011;2279;51.448;7.306;2024-03-02T09:17:22;243.45;;;79.97;;
4533;SDS011;2279;51.448;7.306;2024-03-02T09:19:48;245.70;;;78.97;;
4533;SDS011;2279;51.448;7.306;2024-03-02T09:22:17;248.70;;;81.50;;
4533;SDS011;2279;51.448;7.306;2024-03-02T09:24:43;248.73;;;86.23;;
4533;SDS011;2279;51.448;7.306;2024-03-02T09:27:09;251.33;;;89.23;;
4533;SDS011;2279;51.448;7.306;2024-03-02T09:29:35;245.17;;;82.23;;
4533;SDS011;2279;51.448;7.306;2024-03-02T09:32:01;245.37;;;81.17;;
4533;SDS011;2279;51.448;7.306;2024-03-02T09:34:27;248.50;;;83.77;;
4533;SDS011;2279;51.448;7.306;2024-03-02T09:36:53;252.87;;;89.83;;
4533;SDS011;2279;51.448;7.306;2024-03-02T09:39:19;254.90;;;89.30;;
4533;SDS011;2279;51.448;7.306;2024-03-02T09:41:45;256.27;;;92.80;;
4533;SDS011;2279;51.448;7.306;2024-03-02T09:44:11;254.63;;;91.17;;
4533;SDS011;2279;51.448;7.306;2024-03-02T09:46:37;257.73;;;99.13;;
4533;SDS011;2279;51.448;7.306;2024-03-02T09:49:03;255.70;;;95.87;;
4533;SDS011;2279;51.448;7.306;2024-03-02T09:51:30;254.37;;;92.73;;
4533;SDS011;2279;51.448;7.306;2024-03-02T09:53:56;255.10;;;95.07;;
4533;SDS011;2279;51.448;7.306;2024-03-02T09:56:22;255.73;;;95.57;;
4533;SDS011;2279;51.448;7.306;2024-03-02T09:58:48;256.10;;;95.27;;
4533;SDS011;2279;51.448;7.306;2024-03-02T10:01:14;256.50;;;100.77;;
4533;SDS011;2279;51.448;7.306;2024-03-02T10:03:40;254.80;;;96.43;;
4533;SDS011;2279;51.448;7.306;2024-03-02T10:08:45;256.80;;;99.57;;
4533;SDS011;2279;51.448;7.306;2024-03-02T10:11:23;256.37;;;100.03;;
4533;SDS011;2279;51.448;7.306;2024-03-02T10:13:54;257.93;;;103.33;;
4533;SDS011;2279;51.448;7.306;2024-03-02T10:16:29;256.93;;;100.93;;
4533;SDS011;2279;51.448;7.306;2024-03-02T10:18:55;253.77;;;94.13;;
4533;SDS011;2279;51.448;7.306;2024-03-02T10:21:21;257.57;;;101.63;;
4533;SDS011;2279;51.448;7.306;2024-03-02T10:23:49;256.80;;;101.13;;
4533;SDS011;2279;51.448;7.306;2024-03-02T10:26:18;255.37;;;98.00;;
4533;SDS011;2279;51.448;7.306;2024-03-02T10:28:47;257.20;;;102.23;;
4533;SDS011;2279;51.448;7.306;2024-03-02T10:31:13;256.33;;;99.53;;
4533;SDS011;2279;51.448;7.306;2024-03-02T10:33:39;253.93;;;96.23;;
4533;SDS011;2279;51.448;7.306;2024-03-02T10:36:05;253.30;;;96.27;;
4533;SDS011;2279;51.448;7.306;2024-03-02T10:38:31;253.97;;;96.77;;
4533;SDS011;2279;51.448;7.306;2024-03-02T10:40:57;258.90;;;102.17;;
4533;SDS011;2279;51.448;7.306;2024-03-02T10:43:24;256.33;;;98.27;;
4533;SDS011;2279;51.448;7.306;2024-03-02T10:45:51;260.83;;;105.90;;
4533;SDS011;2279;51.448;7.306;2024-03-02T10:48:18;255.83;;;97.83;;
4533;SDS011;2279;51.448;7.306;2024-03-02T10:50:46;256.53;;;101.17;;
4533;SDS011;2279;51.448;7.306;2024-03-02T10:53:12;256.97;;;101.37;;
4533;SDS011;2279;51.448;7.306;2024-03-02T10:55:38;258.37;;;102.93;;
4533;SDS011;2279;51.448;7.306;2024-03-02T10:58:04;258.43;;;103.03;;
4533;SDS011;2279;51.448;7.306;2024-03-02T11:00:33;261.97;;;106.30;;
4533;SDS011;2279;51.448;7.306;2024-03-02T11:03:06;258.63;;;105.10;;
4533;SDS011;2279;51.448;7.306;2024-03-02T11:05:35;260.47;;;105.53;;
4533;SDS011;2279;51.448;7.306;2024-03-02T11:08:02;262.03;;;109.93;;
4533;SDS011;2279;51.448;7.306;2024-03-02T11:10:34;255.90;;;100.70;;
4533;SDS011;2279;51.448;7.306;2024-03-02T11:13:02;260.53;;;109.63;;
4533;SDS011;2279;51.448;7.306;2024-03-02T11:15:29;259.50;;;107.00;;
4533;SDS011;2279;51.448;7.306;2024-03-02T11:17:56;253.20;;;93.90;;
4533;SDS011;2279;51.448;7.306;2024-03-02T11:20:22;256.33;;;101.60;;
4533;SDS011;2279;51.448;7.306;2024-03-02T11:22:49;256.53;;;101.97;;
4533;SDS011;2279;51.448;7.306;2024-03-02T11:25:25;263.70;;;112.37;;
4533;SDS011;2279;51.448;7.306;2024-03-02T11:33:02;255.37;;;99.87;;
4533;SDS011;2279;51.448;7.306;2024-03-02T11:38:01;258.23;;;104.63;;
4533;SDS011;2279;51.448;7.306;2024-03-02T11:40:28;259.30;;;109.17;;
4533;SDS011;2279;51.448;7.306;2024-03-02T11:42:54;256.20;;;103.57;;
4533;SDS011;2279;51.448;7.306;2024-03-02T11:45:26;260.77;;;113.20;;
4533;SDS011;2279;51.448;7.306;2024-03-02T11:47:56;264.00;;;113.73;;
4533;SDS011;2279;51.448;7.306;2024-03-02T11:50:41;256.80;;;103.93;;
4533;SDS011;2279;51.448;7.306;2024-03-02T11:53:09;263.77;;;114.37;;
4533;SDS011;2279;51.448;7.306;2024-03-02T11:55:37;262.23;;;114.73;;
4533;SDS011;2279;51.448;7.306;2024-03-02T11:58:11;260.10;;;108.20;;
4533;SDS011;2279;51.448;7.306;2024-03-02T12:00:37;258.60;;;107.87;;
4533;SDS011;2279;51.448;7.306;2024-03-02T12:03:04;260.40;;;108.17;;
4533;SDS011;2279;51.448;7.306;2024-03-02T12:05:31;257.23;;;101.00;;
4533;SDS011;2279;51.448;7.306;2024-03-02T12:07:58;260.00;;;105.43;;
4533;SDS011;2279;51.448;7.306;2024-03-02T12:10:25;262.10;;;112.17;;
4533;SDS011;2279;51.448;7.306;2024-03-02T12:15:26;258.20;;;104.77;;
4533;SDS011;2279;51.448;7.306;2024-03-02T12:17:56;261.50;;;104.03;;
4533;SDS011;2279;51.448;7.306;2024-03-02T12:20:22;259.00;;;102.83;;
4533;SDS011;2279;51.448;7.306;2024-03-02T12:22:52;268.40;;;114.73;;
4533;SDS011;2279;51.448;7.306;2024-03-02T12:25:21;264.50;;;107.80;;
4533;SDS011;2279;51.448;7.306;2024-03-02T12:27:49;258.10;;;100.47;;
4533;SDS011;2279;51.448;7.306;2024-03-02T12:30:18;256.97;;;101.70;;
4533;SDS011;2279;51.448;7.306;2024-03-02T12:32:45;256.63;;;98.50;;
4533;SDS011;2279;51.448;7.306;2024-03-02T12:35:11;261.87;;;105.63;;
4533;SDS011;2279;51.448;7.306;2024-03-02T12:37:49;257.03;;;99.43;;
4533;SDS011;2279;51.448;7.306;2024-03-02T12:40:16;254.97;;;93.07;;
4533;SDS011;2279;51.448;7.306;2024-03-02T12:42:43;257.20;;;96.50;;
4533;SDS011;2279;51.448;7.306;2024-03-02T12:45:10;264.60;;;104.77;;
4533;SDS011;2279;51.448;7.306;2024-03-02T12:47:36;258.20;;;98.63;;
4533;SDS011;2279;51.448;7.306;2024-03-02T12:50:03;254.70;;;90.53;;
4533;SDS011;2279;51.448;7.306;2024-03-02T12:52:29;253.67;;;92.17;;
4533;SDS011;2279;51.448;7.306;2024-03-02T12:54:57;256.93;;;95.60;;
4533;SDS011;2279;51.448;7.306;2024-03-02T12:57:26;255.07;;;94.87;;
4533;SDS011;2279;51.448;7.306;2024-03-02T12:59:52;260.37;;;98.33;;
4533;SDS011;2279;51.448;7.306;2024-03-02T13:02:22;260.57;;;100.37;;
4533;SDS011;2279;51.448;7.306;2024-03-02T13:04:54;258.87;;;95.57;;
4533;SDS011;2279;51.448;7.306;2024-03-02T13:07:20;258.47;;;98.27;;
4533;SDS011;2279;51.448;7.306;2024-03-02T13:09:47;256.83;;;97.53;;
4533;SDS011;2279;51.448;7.306;2024-03-02T13:12:15;251.48;;;91.43;;
4533;SDS011;2279;51.448;7.306;2024-03-02T13:14:41;249.73;;;88.28;;
4533;SDS011;2279;51.448;7.306;2024-03-02T13:17:10;250.77;;;86.83;;
4533;SDS011;2279;51.448;7.306;2024-03-02T13:19:39;250.27;;;90.33;;
4533;SDS011;2279;51.448;7.306;2024-03-02T13:22:08;249.53;;;90.83;;
4533;SDS011;2279;51.448;7.306;2024-03-02T13:24:34;251.80;;;93.37;;
4533;SDS011;2279;51.448;7.306;2024-03-02T13:27:01;252.83;;;94.27;;
4533;SDS011;2279;51.448;7.306;2024-03-02T13:29:29;251.67;;;91.40;;
4533;SDS011;2279;51.448;7.306;2024-03-02T13:31:54;251.00;;;87.80;;
4533;SDS011;2279;51.448;7.306;2024-03-02T13:34:22;252.90;;;91.13;;
4533;SDS011;2279;51.448;7.306;2024-03-02T13:36:48;255.30;;;93.63;;
4533;SDS011;2279;51.448;7.306;2024-03-02T13:39:14;248.80;;;85.20;;
4533;SDS011;2279;51.448;7.306;2024-03-02T13:41:40;254.50;;;91.37;;
4533;SDS011;2279;51.448;7.306;2024-03-02T13:44:06;248.70;;;83.87;;
4533;SDS011;2279;51.448;7.306;2024-03-02T13:46:32;257.53;;;92.90;;
4533;SDS011;2279;51.448;7.306;2024-03-02T13:48:58;261.03;;;93.80;;
4533;SDS011;2279;51.448;7.306;2024-03-02T13:51:24;258.73;;;86.20;;
4533;SDS011;2279;51.448;7.306;2024-03-02T13:53:50;264.05;;;90.93;;
4533;SDS011;2279;51.448;7.306;2024-03-02T13:56:16;252.43;;;85.13;;
4533;SDS011;2279;51.448;7.306;2024-03-02T13:58:42;250.95;;;82.68;;
4533;SDS011;2279;51.448;7.306;2024-03-02T14:01:11;252.65;;;84.57;;
4533;SDS011;2279;51.448;7.306;2024-03-02T14:03:37;250.70;;;84.50;;
4533;SDS011;2279;51.448;7.306;2024-03-02T14:06:03;250.23;;;83.90;;
4533;SDS011;2279;51.448;7.306;2024-03-02T14:08:29;247.13;;;80.95;;
4533;SDS011;2279;51.448;7.306;2024-03-02T14:10:55;252.20;;;88.90;;
4533;SDS011;2279;51.448;7.306;2024-03-02T14:13:25;254.30;;;88.97;;
4533;SDS011;2279;51.448;7.306;2024-03-02T14:15:51;251.52;;;85.57;;
4533;SDS011;2279;51.448;7.306;2024-03-02T14:18:17;251.00;;;84.07;;
4533;SDS011;2279;51.448;7.306;2024-03-02T14:20:43;250.45;;;84.55;;
4533;SDS011;2279;51.448;7.306;2024-03-02T14:23:09;252.80;;;87.97;;
4533;SDS011;2279;51.448;7.306;2024-03-02T14:25:35;254.07;;;90.47;;
4533;SDS011;2279;51.448;7.306;2024-03-02T14:28:01;253.90;;;88.57;;
4533;SDS011;2279;51.448;7.306;2024-03-02T14:30:27;251.20;;;85.47;;
4533;SDS011;2279;51.448;7.306;2024-03-02T14:32:53;252.27;;;86.10;;
4533;SDS011;2279;51.448;7.306;2024-03-02T14:35:19;256.03;;;94.07;;
4533;SDS011;2279;51.448;7.306;2024-03-02T14:37:47;248.37;;;85.87;;
4533;SDS011;2279;51.448;7.306;2024-03-02T14:40:13;250.33;;;82.40;;
4533;SDS011;2279;51.448;7.306;2024-03-02T14:42:39;251.53;;;87.90;;
4533;SDS011;2279;51.448;7.306;2024-03-02T14:45:05;252.17;;;87.60;;
4533;SDS011;2279;51.448;7.306;2024-03-02T14:47:31;251.57;;;83.27;;
4533;SDS011;2279;51.448;7.306;2024-03-02T14:49:58;252.85;;;85.93;;
4533;SDS011;2279;51.448;7.306;2024-03-02T14:52:27;251.20;;;83.28;;
4533;SDS011;2279;51.448;7.306;2024-03-02T14:54:53;250.57;;;83.65;;